Time;durP1;ratioP1;P1;durP2;ratioP2;P2;SDS_P1;SDS_P2;PMS_P1;PMS_P2;Temp;Humidity;BMP_temperature;BMP_pressure;BME280_temperature;BME280_humidity;BME280_pressure;Samples;Min_cycle;Max_cycle;Signal;HPM_P1;HPM_P2
2022/05/22 00:01:57;;;;;;;2.90;1.83;;;;;;;10.98;73.03;100633.50;6229653;23;20008;-73
2022/05/22 00:04:24;;;;;;;4.53;2.25;;;;;;;10.98;72.49;100620.66;6228208;23;19996;-73
2022/05/22 00:06:50;;;;;;;2.85;1.73;;;;;;;11.04;72.47;100623.41;6258187;23;20082;-73
2022/05/22 00:09:17;;;;;;;6.90;1.63;;;;;;;11.04;72.37;100620.69;6205424;23;20060;-73
2022/05/22 00:12:02;;;;;;;3.58;1.42;;;;;;;11.00;72.31;100621.22;6204605;23;20013;-73
2022/05/22 00:14:30;;;;;;;;;;;;;;;10.95;72.65;100617.63;6259119;22;20028;-73
2022/05/22 00:30:11;;;;;;;3.17;1.25;;;;;;;10.92;72.46;100580.69;6227875;23;20020;-75
2022/05/22 00:33:41;;;;;;;;;;;;;;;;;;;;;
2022/05/22 00:36:23;;;;;;;;;;;;;;;;;;;;;
2022/05/22 00:39:50;;;;;;;;;;;;;;;;;;;;;
2022/05/22 00:42:55;;;;;;;;;;;;;;;;;;;;;
2022/05/22 00:49:38;;;;;;;1.52;0.75;;;;;;;10.51;73.99;100596.78;6042456;23;20092;-73
2022/05/22 01:05:12;;;;;;;1.85;1.02;;;;;;;10.11;75.24;100587.13;5994652;24;20505;-75
2022/05/22 01:07:45;;;;;;;2.65;1.00;;;;;;;10.05;74.96;100588.19;5947916;24;20088;-75
2022/05/22 01:10:38;;;;;;;2.85;1.15;;;;;;;9.92;76.09;100573.84;5948151;24;20012;-75
2022/05/22 01:13:05;;;;;;;2.50;1.00;;;;;;;9.92;76.01;100587.50;6100431;23;20017;-76
2022/05/22 01:15:31;;;;;;;1.77;0.75;;;;;;;9.89;75.57;100590.75;6123887;23;20015;-76
2022/05/22 01:17:59;;;;;;;0.90;0.70;;;;;;;9.84;76.05;100587.97;6204986;23;20033;-76
2022/05/22 01:20:26;;;;;;;1.33;0.50;;;;;;;9.78;75.49;100578.06;6177758;23;20009;-75
2022/05/22 01:22:53;;;;;;;1.48;0.82;;;;;;;9.88;76.14;100594.53;6178074;23;20066;-75
2022/05/22 01:25:22;;;;;;;3.35;1.00;;;;;;;9.93;76.14;100585.59;6179004;23;20104;-74
2022/05/22 01:27:49;;;;;;;4.63;0.90;;;;;;;10.00;75.92;100585.38;6154086;23;20016;-75
2022/05/22 01:30:19;;;;;;;3.47;1.27;;;;;;;10.11;75.61;100579.75;6178820;23;20514;-76
2022/05/22 01:33:02;;;;;;;3.55;1.27;;;;;;;10.19;76.06;100570.28;6205551;23;20004;-76
2022/05/22 01:35:30;;;;;;;3.53;1.00;;;;;;;10.35;75.14;100575.88;6202807;23;20013;-75
2022/05/22 01:38:37;;;;;;;1.98;0.77;;;;;;;10.44;74.77;100572.41;6204011;23;20066;-75
2022/05/22 01:41:17;;;;;;;2.63;0.90;;;;;;;10.57;74.13;100571.16;6201352;23;20016;-76
2022/05/22 01:43:44;;;;;;;1.98;1.13;;;;;;;10.57;74.04;100557.47;6179862;23;20008;-75
2022/05/22 01:46:14;;;;;;;3.20;1.00;;;;;;;10.69;73.83;100570.13;6175843;23;20024;-76
2022/05/22 01:48:41;;;;;;;1.70;0.95;;;;;;;10.67;74.21;100566.84;6201869;23;20000;-75
2022/05/22 01:51:07;;;;;;;2.30;1.00;;;;;;;10.54;73.73;100547.06;6153600;23;20009;-75
2022/05/22 01:54:03;;;;;;;1.60;0.82;;;;;;;10.50;73.86;100554.16;6154888;23;20008;-74
2022/05/22 01:56:46;;;;;;;1.80;0.90;;;;;;;10.39;74.09;100536.00;6212511;22;20102;-74
2022/05/22 02:00:24;;;;;;;4.95;0.90;;;;;;;10.29;73.95;100518.44;6227247;23;20033;-76
2022/05/22 02:13:40;;;;;;;1.13;0.60;;;;;;;10.78;73.64;100522.88;6048734;23;20078;-74
2022/05/22 02:27:33;;;;;;;;;;;;;;;;;;;;;
2022/05/22 02:33:05;;;;;;;1.75;0.95;;;;;;;9.85;75.18;100485.81;6086245;23;20407;-74
2022/05/22 03:03:52;;;;;;;1.08;0.73;;;;;;;9.37;76.62;100495.72;6084477;23;20021;-75
2022/05/22 03:13:53;;;;;;;;;;;;;;;;;;;;;
2022/05/22 03:17:38;;;;;;;0.60;0.45;;;;;;;9.19;77.19;100480.53;6163568;23;20053;-75
2022/05/22 03:20:05;;;;;;;4.28;0.85;;;;;;;9.24;76.69;100475.94;6242834;23;20010;-76
2022/05/22 03:22:31;;;;;;;2.30;0.90;;;;;;;9.20;76.47;100458.44;6229869;23;20016;-75
2022/05/22 03:25:02;;;;;;;1.33;0.50;;;;;;;9.21;77.09;100465.53;6258742;23;20000;-76
2022/05/22 03:27:30;;;;;;;1.00;0.60;;;;;;;9.16;76.84;100467.38;6180997;23;20031;-74
2022/05/22 03:29:59;;;;;;;2.20;0.60;;;;;;;9.08;77.21;100465.91;6181496;23;20066;-74
2022/05/22 03:32:26;;;;;;;0.98;0.75;;;;;;;8.98;77.30;100466.66;6180776;23;20020;-73
2022/05/22 03:35:07;;;;;;;2.00;0.70;;;;;;;9.01;77.55;100476.19;6206254;23;20423;-75
2022/05/22 03:37:35;;;;;;;1.05;0.60;;;;;;;8.97;77.36;100473.16;6229655;23;20007;-74
2022/05/22 03:40:02;;;;;;;1.10;0.70;;;;;;;8.90;77.46;100458.91;6184039;23;20019;-74
2022/05/22 03:45:09;;;;;;;0.95;0.60;;;;;;;8.82;77.23;100460.16;6257033;22;20422;-74
2022/05/22 03:47:42;;;;;;;2.53;1.30;;;;;;;8.80;78.08;100459.59;6232224;23;20008;-73
2022/05/22 03:50:25;;;;;;;4.72;1.38;;;;;;;8.66;78.65;100436.50;6233958;22;20000;-72
2022/05/22 03:52:51;;;;;;;1.40;0.85;;;;;;;8.65;78.21;100434.88;6232099;23;20019;-71
2022/05/22 03:55:18;;;;;;;2.97;0.90;;;;;;;8.65;78.55;100432.13;6182612;23;20011;-72
2022/05/22 03:57:48;;;;;;;2.45;0.70;;;;;;;8.71;78.93;100442.03;6202055;23;20008;-72
2022/05/22 04:00:15;;;;;;;2.63;1.52;;;;;;;8.66;78.79;100439.22;6231140;23;20007;-73
2022/05/22 04:02:41;;;;;;;2.20;1.00;;;;;;;8.59;78.90;100438.63;6206564;23;20019;-74
2022/05/22 04:05:08;;;;;;;3.95;1.35;;;;;;;8.50;78.92;100428.13;6230357;22;20008;-73
2022/05/22 04:07:50;;;;;;;3.50;1.50;;;;;;;8.48;80.07;100424.00;6205401;23;20016;-73
2022/05/22 04:10:17;;;;;;;2.85;1.35;;;;;;;8.46;79.80;100416.09;6228676;23;20055;-73
2022/05/22 04:12:43;;;;;;;3.58;1.30;;;;;;;8.40;80.29;100422.50;6226869;23;20342;-72
2022/05/22 04:15:12;;;;;;;4.20;1.20;;;;;;;8.39;80.59;100431.75;6253742;23;19996;-72
2022/05/22 04:17:45;;;;;;;6.95;1.50;;;;;;;8.28;79.81;100424.50;6231507;23;20031;-74
2022/05/22 04:20:11;;;;;;;1.50;0.80;;;;;;;8.28;80.75;100427.22;6231981;23;20000;-75
2022/05/22 04:25:33;;;;;;;1.90;0.93;;;;;;;8.24;81.36;100417.94;6239174;23;20010;-74
2022/05/22 04:28:29;;;;;;;2.95;1.20;;;;;;;8.21;80.23;100414.63;6259356;23;20059;-74
2022/05/22 04:36:47;;;;;;;0.80;0.60;;;;;;;8.31;81.10;100418.56;6194875;23;20024;-74
2022/05/22 04:49:58;;;;;;;5.07;0.60;;;;;;;8.59;80.51;100424.97;5935711;24;20065;-73
2022/05/22 04:57:04;;;;;;;1.00;0.50;;;;;;;8.50;79.22;100392.69;5936343;24;20024;-75
2022/05/22 05:17:57;;;;;;;;;;;;;;;;;;;;;
2022/05/22 05:23:30;;;;;;;1.58;0.70;;;;;;;9.54;77.73;100398.16;5879355;24;20036;-74
2022/05/22 05:30:07;;;;;;;1.73;0.75;;;;;;;9.94;77.50;100418.72;5883805;24;20030;-75
2022/05/22 05:32:39;;;;;;;1.52;0.75;;;;;;;9.87;77.42;100385.34;5838749;24;20071;-75
2022/05/22 05:35:11;;;;;;;1.08;0.68;;;;;;;9.97;77.42;100384.56;5841281;24;20014;-76
2022/05/22 05:37:59;;;;;;;0.77;0.70;;;;;;;10.19;77.22;100406.31;5927912;23;20028;-76
2022/05/22 05:44:05;;;;;;;1.85;0.90;;;;;;;10.53;76.71;100410.59;6015729;23;19995;-75
2022/05/22 05:47:24;;;;;;;2.58;1.00;;;;;;;10.65;76.37;100417.50;6100806;23;19997;-75
2022/05/22 05:49:57;;;;;;;1.10;0.85;;;;;;;10.78;76.52;100432.59;6164596;23;20461;-75
2022/05/22 05:53:28;;;;;;;;;;;;;;;;;;;;;
2022/05/22 05:56:30;;;;;;;2.20;1.23;;;;;;;10.73;75.61;100386.09;6136970;23;20041;-75
2022/05/22 06:06:27;;;;;;;1.20;0.73;;;;;;;11.28;74.86;100407.59;6105630;23;20013;-75
2022/05/22 06:09:53;;;;;;;2.85;1.17;;;;;;;11.45;74.85;100410.88;6025563;23;20023;-74
2022/05/22 06:12:18;;;;;;;2.27;1.13;;;;;;;11.55;74.98;100404.59;5945053;23;20083;-73
2022/05/22 06:15:00;;;;;;;1.67;0.90;;;;;;;11.74;75.04;100409.53;5960063;24;20045;-73
2022/05/22 06:17:44;;;;;;;1.88;0.80;;;;;;;11.83;74.17;100405.16;5991860;23;20094;-74
2022/05/22 06:20:12;;;;;;;1.98;0.90;;;;;;;11.89;73.97;100406.78;6188473;23;20052;-74
2022/05/22 06:22:37;;;;;;;1.58;1.00;;;;;;;11.98;73.92;100404.34;6228772;23;20004;-74
2022/05/22 06:25:10;;;;;;;1.33;0.70;;;;;;;12.10;73.67;100413.09;6202013;23;20004;-73
2022/05/22 06:27:44;;;;;;;2.50;1.13;;;;;;;12.15;73.47;100402.13;6226467;23;20092;-73
2022/05/22 06:30:13;;;;;;;1.35;0.90;;;;;;;12.30;73.07;100414.16;6226797;23;20004;-72
2022/05/22 06:32:40;;;;;;;1.10;0.77;;;;;;;12.26;72.77;100397.44;6227244;23;20030;-72
2022/05/22 06:35:13;;;;;;;1.30;0.77;;;;;;;12.47;72.79;100416.56;6202448;23;20343;-75
2022/05/22 06:41:19;;;;;;;2.97;0.80;;;;;;;12.74;72.12;100410.72;6255104;23;20019;-71
2022/05/22 06:43:49;;;;;;;1.83;0.82;;;;;;;12.80;71.52;100419.75;6254858;23;20004;-73
2022/05/22 06:46:18;;;;;;;1.35;1.08;;;;;;;12.88;70.65;100410.94;6203268;23;20014;-72
2022/05/22 06:48:44;;;;;;;3.35;1.30;;;;;;;12.79;70.65;100404.38;6199146;23;20007;-72
2022/05/22 06:51:12;;;;;;;2.17;1.20;;;;;;;12.81;69.93;100422.22;6223986;23;20427;-74
2022/05/22 06:53:38;;;;;;;3.00;1.10;;;;;;;12.80;69.40;100428.00;6198341;23;20073;-72
2022/05/22 06:56:04;;;;;;;2.25;1.00;;;;;;;12.83;69.87;100435.66;6199499;23;20024;-73
2022/05/22 06:58:30;;;;;;;2.97;1.20;;;;;;;12.83;68.40;100419.19;6200006;23;20015;-72
2022/05/22 07:00:56;;;;;;;4.65;1.40;;;;;;;12.85;68.49;100411.47;6224578;23;20001;-73
2022/05/22 07:03:21;;;;;;;2.20;1.00;;;;;;;13.02;68.61;100408.38;6198862;23;20066;-73
2022/05/22 07:05:47;;;;;;;2.28;1.00;;;;;;;13.12;67.97;100399.28;6226069;23;20026;-70
2022/05/22 07:08:15;;;;;;;5.93;1.10;;;;;;;13.20;68.30;100390.44;6201002;23;20078;-73
2022/05/22 07:13:25;;;;;;;2.03;0.95;;;;;;;13.35;68.32;100371.16;6251162;23;20027;-72
2022/05/22 07:16:02;;;;;;;2.80;0.75;;;;;;;13.39;68.53;100363.13;6198808;23;20016;-75
2022/05/22 07:18:28;;;;;;;2.13;0.80;;;;;;;13.44;68.16;100368.63;6225010;23;20311;-72
2022/05/22 07:20:54;;;;;;;4.88;1.45;;;;;;;13.41;67.89;100348.03;6200457;23;20019;-75
2022/05/22 07:23:19;;;;;;;4.03;1.27;;;;;;;13.59;68.25;100353.94;6226133;23;20028;-73
2022/05/22 07:26:34;;;;;;;;;;;;;;;;;;;;;
2022/05/22 08:09:48;;;;;;;3.70;1.30;;;;;;;14.96;63.44;100307.81;6230373;22;20390;-73
2022/05/22 08:12:16;;;;;;;3.85;1.08;;;;;;;15.01;63.77;100291.22;6200629;23;20063;-74
2022/05/22 08:14:44;;;;;;;2.20;1.20;;;;;;;15.27;63.59;100301.81;6200892;23;20012;-75
2022/05/22 08:17:52;;;;;;;4.25;1.63;;;;;;;15.65;62.68;100312.75;6253009;23;20008;-75
2022/05/22 08:20:38;;;;;;;2.22;1.00;;;;;;;15.40;61.28;100276.25;6148445;23;20019;-73
2022/05/22 08:23:37;;;;;;;3.15;0.82;;;;;;;15.66;60.29;100320.72;6252164;23;20007;-76
2022/05/22 08:26:05;;;;;;;1.67;0.70;;;;;;;15.79;56.41;100319.13;6255343;23;20011;-74
2022/05/22 08:28:38;;;;;;;3.15;0.93;;;;;;;15.84;56.71;100319.06;6227240;23;20000;-77
2022/05/22 08:31:16;;;;;;;;;;;;;;;;;;;;;
2022/05/22 08:33:53;;;;;;;5.70;1.20;;;;;;;16.07;57.88;100319.16;6255909;23;20049;-74
2022/05/22 08:36:31;;;;;;;4.75;1.13;;;;;;;16.19;56.89;100304.88;6203436;23;20012;-76
2022/05/22 08:39:17;;;;;;;3.70;0.60;;;;;;;16.16;55.14;100295.25;6231948;23;20068;-75
2022/05/22 08:42:35;;;;;;;;;;;;;;;;;;;;;
2022/05/22 08:45:04;;;;;;;2.80;1.08;;;;;;;16.30;54.52;100284.22;6251150;23;20469;-75
2022/05/22 08:48:10;;;;;;;1.73;0.90;;;;;;;16.47;55.37;100311.19;6208215;23;20008;-74
2022/05/22 10:34:25;;;;;;;3.97;0.77;;;;;;;33.42;23.05;100205.47;6207890;23;20032;-77
2022/05/22 10:36:55;;;;;;;3.80;1.10;;;;;;;34.39;21.92;100202.97;6216296;23;20012;-74
2022/05/22 10:39:26;;;;;;;3.38;1.00;;;;;;;35.44;20.97;100193.00;6195800;23;20001;-73
2022/05/22 10:44:52;;;;;;;5.18;1.00;;;;;;;36.60;18.15;100190.78;6224460;23;20011;-74
2022/05/22 10:47:29;;;;;;;4.37;1.07;;;;;;;37.41;18.19;100182.22;6197030;23;20080;-73
2022/05/22 10:50:15;;;;;;;2.05;0.80;;;;;;;38.57;18.00;100179.78;6225612;23;20068;-74
2022/05/22 10:53:14;;;;;;;;;;;;;;;;;;;;;
2022/05/22 10:55:50;;;;;;;2.55;1.10;;;;;;;39.91;15.31;100178.88;6212258;23;20008;-76
2022/05/22 10:58:26;;;;;;;3.70;1.05;;;;;;;40.37;15.51;100162.97;6149715;23;20012;-77
2022/05/22 11:00:58;;;;;;;2.65;0.80;;;;;;;40.38;15.40;100156.75;6193061;23;20005;-74
2022/05/22 11:03:28;;;;;;;3.88;0.90;;;;;;;40.86;14.81;100147.56;6174491;23;19993;-73
2022/05/22 11:06:17;;;;;;;3.60;1.02;;;;;;;41.32;14.39;100155.97;6195070;23;20001;-73
2022/05/22 11:08:48;;;;;;;2.70;0.93;;;;;;;42.04;14.76;100148.63;6220072;23;20005;-73
2022/05/22 11:11:43;;;;;;;2.35;0.90;;;;;;;42.49;13.34;100157.31;6217951;23;20008;-75
2022/05/22 11:14:23;;;;;;;4.03;1.02;;;;;;;41.91;12.93;100159.59;6193743;23;20347;-73
2022/05/22 11:38:26;;;;;;;3.63;0.70;;;;;;;43.68;12.14;100113.91;6216274;23;20051;-77
2022/05/22 11:41:13;;;;;;;2.88;1.10;;;;;;;42.85;12.35;100118.75;6196212;23;20013;-75
2022/05/22 11:43:57;;;;;;;2.40;0.52;;;;;;;43.50;11.94;100103.47;6194699;23;20588;-78
2022/05/22 11:47:16;;;;;;;1.90;0.95;;;;;;;45.39;9.87;100098.81;6200892;23;20066;-77
2022/05/22 11:50:28;;;;;;;2.03;0.80;;;;;;;44.43;9.62;100088.22;6032840;23;20166;-76
2022/05/22 11:53:53;;;;;;;3.13;0.90;;;;;;;43.87;9.48;100081.91;6106675;23;20003;-77
2022/05/22 12:14:21;;;;;;;;;;;;;;;;;;;;;
2022/05/22 13:19:55;;;;;;;3.28;0.98;;;;;;;39.97;12.34;99993.00;5968484;23;20061;-73
2022/05/22 13:22:43;;;;;;;2.30;0.50;;;;;;;39.06;13.25;99996.19;5987625;23;20021;-74
2022/05/22 13:25:36;;;;;;;1.77;0.70;;;;;;;39.80;12.90;99990.47;6016631;23;20007;-75
2022/05/22 13:57:26;;;;;;;1.60;0.80;;;;;;;47.51;7.32;99961.03;6255254;23;20027;-71
2022/05/22 14:00:05;;;;;;;1.00;0.45;;;;;;;47.24;6.96;99951.16;6230034;23;20024;-73
2022/05/22 14:03:20;;;;;;;1.15;0.90;;;;;;;47.25;6.88;99950.63;6230519;23;20087;-73
2022/05/22 14:05:52;;;;;;;1.63;0.60;;;;;;;46.33;7.47;99923.34;6194319;23;20008;-74
2022/05/22 14:08:22;;;;;;;2.17;0.60;;;;;;;45.19;8.29;99920.94;6230475;23;20103;-72
2022/05/22 14:11:17;;;;;;;2.58;0.77;;;;;;;44.26;8.78;99912.38;6230763;23;20045;-74
2022/05/22 14:14:21;;;;;;;4.35;1.20;;;;;;;41.47;10.44;99908.56;6230417;23;20004;-74
2022/05/22 14:17:05;;;;;;;3.17;0.90;;;;;;;39.12;12.07;99889.81;6232479;23;20008;-74
2022/05/22 15:00:02;;;;;;;3.53;0.80;;;;;;;43.35;9.42;99847.47;6260229;23;20019;-76
2022/05/22 15:02:38;;;;;;;2.40;0.60;;;;;;;41.17;10.78;99856.91;6231674;23;20014;-74
2022/05/22 15:05:09;;;;;;;3.13;1.13;;;;;;;39.20;12.01;99851.84;6233352;23;20003;-74
2022/05/22 15:07:35;;;;;;;3.17;0.82;;;;;;;37.78;13.16;99855.38;6230826;23;20062;-76
2022/05/22 15:10:35;;;;;;;2.35;1.00;;;;;;;37.00;13.70;99851.34;6234000;23;20008;-76
2022/05/22 15:13:12;;;;;;;3.10;0.70;;;;;;;37.11;13.14;99853.81;6229474;23;20004;-76
2022/05/22 15:15:38;;;;;;;2.15;0.50;;;;;;;36.17;13.58;99851.28;6261996;23;20060;-78
2022/05/22 15:18:06;;;;;;;3.05;0.40;;;;;;;35.09;14.33;99843.16;6209096;23;20054;-76
2022/05/22 15:20:35;;;;;;;4.28;2.25;;;;;;;34.55;14.71;99845.44;6262280;23;20000;-76
2022/05/22 15:25:57;;;;;;;3.20;0.82;;;;;;;35.84;13.34;99833.72;6241046;23;20019;-75
2022/05/22 15:28:27;;;;;;;4.97;1.02;;;;;;;37.04;12.18;99835.72;6205767;23;20068;-75
2022/05/22 15:30:52;;;;;;;1.27;0.47;;;;;;;38.48;11.81;99835.00;6258876;23;20054;-78
2022/05/22 15:33:21;;;;;;;2.17;0.77;;;;;;;39.63;11.29;99831.91;6232725;23;20039;-75
2022/05/22 15:35:52;;;;;;;1.95;0.80;;;;;;;38.21;11.88;99830.81;6232127;23;20287;-76
2022/05/22 15:38:30;;;;;;;1.63;0.52;;;;;;;37.90;12.39;99833.72;6210416;23;20004;-75
2022/05/22 15:41:05;;;;;;;3.05;0.93;;;;;;;37.29;12.16;99836.06;6259076;23;20023;-76
2022/05/22 15:53:02;;;;;;;2.25;0.93;;;;;;;33.50;15.59;99812.22;6260653;23;20026;-75
2022/05/22 15:55:29;;;;;;;1.83;0.77;;;;;;;34.36;15.54;99806.59;6235011;23;20004;-76
2022/05/22 15:57:56;;;;;;;4.82;1.25;;;;;;;34.71;15.21;99806.88;6260504;23;20000;-74
2022/05/22 16:00:23;;;;;;;1.50;1.00;;;;;;;34.38;14.98;99804.13;6233161;23;20015;-76
2022/05/22 16:02:52;;;;;;;1.52;1.17;;;;;;;34.31;15.35;99801.47;6261449;23;19999;-75
2022/05/22 16:05:21;;;;;;;2.53;1.15;;;;;;;33.62;15.26;99802.28;6260049;23;20000;-76
2022/05/22 16:07:51;;;;;;;1.70;0.50;;;;;;;34.92;14.97;99794.94;6260207;23;19992;-76
2022/05/22 16:10:18;;;;;;;1.23;0.60;;;;;;;37.53;12.67;99799.31;6261312;23;20027;-75
2022/05/22 16:12:44;;;;;;;6.47;0.70;;;;;;;39.03;11.77;99796.28;6230157;23;19996;-76
2022/05/22 16:15:13;;;;;;;1.77;0.47;;;;;;;39.87;10.99;99806.22;6233295;23;20019;-78
2022/05/22 16:18:12;;;;;;;2.55;0.70;;;;;;;38.72;10.83;99809.47;6261445;23;20000;-77
2022/05/22 16:20:39;;;;;;;1.95;0.50;;;;;;;37.09;11.85;99783.06;6233694;23;20007;-76
2022/05/22 16:23:07;;;;;;;1.92;0.70;;;;;;;35.73;12.80;99789.28;6234157;23;20011;-76
2022/05/22 16:25:33;;;;;;;3.05;0.52;;;;;;;34.73;13.83;99793.03;6233772;23;20000;-77
2022/05/22 16:27:58;;;;;;;1.17;0.63;;;;;;;34.79;14.26;99789.22;6234117;23;20035;-74
2022/05/22 17:48:19;;;;;;;7.70;1.90;;;;;;;20.27;36.44;99699.00;6263733;23;20070;-76
2022/05/22 17:50:48;;;;;;;4.55;1.90;;;;;;;20.06;37.51;99693.56;6263276;23;20031;-76
2022/05/22 17:53:20;;;;;;;4.32;2.00;;;;;;;19.85;37.25;99696.47;6236507;22;19992;-77
2022/05/22 17:55:48;;;;;;;4.30;1.40;;;;;;;19.54;38.15;99681.16;6269238;22;20483;-77
2022/05/22 17:58:17;;;;;;;5.35;1.70;;;;;;;19.36;38.36;99678.59;6237026;23;19988;-77
2022/05/22 18:00:43;;;;;;;5.57;1.77;;;;;;;19.19;39.19;99673.25;6236074;22;20015;-77
2022/05/22 18:03:10;;;;;;;3.80;1.30;;;;;;;19.16;38.85;99688.59;6210867;23;20034;-76
2022/05/22 18:05:36;;;;;;;4.85;1.30;;;;;;;19.07;39.92;99681.50;6237574;22;20015;-79
2022/05/22 18:08:04;;;;;;;3.45;1.05;;;;;;;19.10;39.12;99680.81;6211607;23;20012;-79
2022/05/22 18:16:09;;;;;;;6.10;1.20;;;;;;;19.33;39.10;99668.19;6262251;23;20030;-79
2022/05/22 18:18:37;;;;;;;5.88;1.35;;;;;;;19.68;38.49;99678.88;6235071;23;20007;-76
2022/05/22 18:21:06;;;;;;;2.72;1.27;;;;;;;20.12;37.39;99677.50;6236761;23;20138;-77
2022/05/22 18:23:42;;;;;;;1.65;0.65;;;;;;;20.16;36.91;99664.53;6235429;23;20314;-77
2022/05/22 18:26:10;;;;;;;2.67;0.82;;;;;;;20.11;36.79;99685.00;6234791;23;20007;-78
2022/05/22 18:28:42;;;;;;;1.40;0.75;;;;;;;19.96;37.43;99672.66;6260395;23;20004;-76
2022/05/22 18:31:13;;;;;;;1.63;0.57;;;;;;;19.73;37.79;99680.59;6262135;22;20028;-76
2022/05/22 18:33:39;;;;;;;2.38;1.10;;;;;;;19.40;38.89;99683.44;6235775;23;20011;-75
2022/05/22 18:36:05;;;;;;;2.17;0.80;;;;;;;19.12;39.69;99667.44;6211502;23;20040;-76
2022/05/22 18:38:30;;;;;;;1.17;0.60;;;;;;;18.88;40.55;99663.44;6210977;23;20454;-77
2022/05/22 18:40:57;;;;;;;1.13;0.55;;;;;;;18.72;40.23;99662.41;6211180;23;20079;-77
2022/05/22 18:43:23;;;;;;;3.35;0.90;;;;;;;18.54;42.13;99670.88;6236668;22;20023;-77
2022/05/22 18:45:50;;;;;;;2.65;0.90;;;;;;;18.39;42.96;99674.25;6236337;23;20004;-77
2022/05/22 18:48:33;;;;;;;3.13;1.23;;;;;;;18.17;43.26;99664.31;6262253;22;20034;-78
2022/05/22 18:51:01;;;;;;;2.97;0.87;;;;;;;18.01;44.14;99661.31;6236485;23;20087;-78
2022/05/22 18:53:28;;;;;;;5.70;1.90;;;;;;;17.78;44.92;99654.09;6235554;23;20008;-77
2022/05/22 18:55:55;;;;;;;2.03;0.77;;;;;;;17.55;45.65;99648.03;6210552;23;20008;-79
2022/05/22 18:58:24;;;;;;;5.13;1.13;;;;;;;17.44;45.33;99660.59;6187741;23;20046;-77
2022/05/22 19:00:52;;;;;;;4.45;1.35;;;;;;;17.23;46.39;99655.78;6263169;23;20008;-76
2022/05/22 19:03:21;;;;;;;5.30;1.30;;;;;;;17.05;47.16;99656.94;6236543;22;20015;-76
2022/05/22 19:05:47;;;;;;;4.80;0.98;;;;;;;16.93;46.95;99661.19;6210915;23;20446;-76
2022/05/22 19:08:18;;;;;;;4.30;1.13;;;;;;;16.79;47.21;99660.53;6208606;23;20103;-76
2022/05/22 19:10:49;;;;;;;3.30;0.90;;;;;;;16.60;47.41;99657.31;6236886;23;20026;-76
2022/05/22 19:13:40;;;;;;;3.08;0.82;;;;;;;16.46;47.87;99652.75;6237135;23;20007;-74
2022/05/22 19:16:21;;;;;;;3.25;1.10;;;;;;;16.25;48.19;99637.97;6236984;23;20027;-76
2022/05/22 19:18:47;;;;;;;2.35;0.80;;;;;;;16.17;48.96;99656.16;6236114;23;20019;-76
2022/05/22 19:21:12;;;;;;;7.00;1.10;;;;;;;16.04;48.49;99652.38;6262064;22;20407;-76
2022/05/22 19:23:37;;;;;;;1.13;0.70;;;;;;;15.95;49.60;99655.13;6186455;23;20012;-75
2022/05/22 19:26:04;;;;;;;5.22;1.00;;;;;;;15.84;49.68;99654.63;6263501;23;20002;-75
2022/05/22 19:28:38;;;;;;;2.17;1.02;;;;;;;15.67;50.18;99654.53;6261392;23;19996;-76
2022/05/22 19:31:05;;;;;;;3.03;1.03;;;;;;;15.60;50.25;99651.44;6236106;23;20003;-76
2022/05/22 19:33:34;;;;;;;5.38;1.13;;;;;;;15.52;51.07;99653.84;6235450;23;20011;-77
2022/05/22 19:36:03;;;;;;;3.25;1.20;;;;;;;15.40;50.58;99650.84;6210099;23;20423;-76
2022/05/22 19:38:31;;;;;;;9.13;1.40;;;;;;;15.31;52.13;99647.25;6237603;23;20031;-76
2022/05/22 19:43:56;;;;;;;3.00;0.98;;;;;;;15.24;52.13;99644.13;6238473;23;20004;-78
2022/05/22 19:43:57;;;;;;;2.22;0.95;;;;;;;15.13;52.53;99647.16;6268923;22;20076;-78
2022/05/22 19:46:24;;;;;;;2.83;1.17;;;;;;;15.04;52.48;99643.56;6193685;23;20055;-77
2022/05/22 19:48:51;;;;;;;2.80;1.50;;;;;;;14.95;53.45;99638.00;6239174;23;20086;-77
2022/05/22 19:51:17;;;;;;;3.10;0.80;;;;;;;14.78;53.12;99624.94;6212045;23;20012;-77
2022/05/22 19:53:42;;;;;;;3.13;0.80;;;;;;;14.76;53.16;99632.69;6238593;23;20008;-78
2022/05/22 19:58:52;;;;;;;3.65;1.02;;;;;;;14.59;53.08;99627.03;6219594;23;20047;-78
2022/05/22 20:01:19;;;;;;;2.88;0.90;;;;;;;14.51;52.99;99622.28;6238155;23;19996;-79
2022/05/22 20:03:48;;;;;;;2.85;0.93;;;;;;;14.48;53.43;99632.78;6235532;23;20005;-76
2022/05/22 20:06:18;;;;;;;2.35;0.85;;;;;;;14.32;53.65;99612.25;6234343;23;20005;-78
2022/05/22 20:08:51;;;;;;;2.13;0.95;;;;;;;14.27;54.46;99620.63;6240231;23;20015;-76
2022/05/22 20:11:29;;;;;;;1.48;0.70;;;;;;;14.24;54.56;99621.25;6235491;22;20008;-77
2022/05/22 20:13:55;;;;;;;1.33;0.60;;;;;;;14.16;53.94;99624.72;6235890;23;20008;-77
2022/05/22 20:16:39;;;;;;;4.57;0.70;;;;;;;14.04;54.08;99628.81;6210494;23;20019;-78
2022/05/22 20:19:14;;;;;;;1.60;0.80;;;;;;;13.97;54.85;99622.94;6210569;23;20015;-78
2022/05/22 20:21:43;;;;;;;1.15;0.77;;;;;;;13.85;55.32;99614.41;6236616;23;20008;-77
2022/05/22 20:24:12;;;;;;;3.90;1.13;;;;;;;13.86;56.01;99621.53;6213432;23;20012;-77
2022/05/22 20:26:38;;;;;;;3.20;1.10;;;;;;;13.75;55.75;99616.22;6266340;23;19996;-76
2022/05/22 20:29:05;;;;;;;2.47;0.90;;;;;;;13.61;55.36;99609.97;6213834;23;19996;-77
2022/05/22 20:31:31;;;;;;;0.80;0.60;;;;;;;13.63;55.88;99618.69;6190240;23;20031;-77
2022/05/22 20:33:58;;;;;;;2.38;0.98;;;;;;;13.62;56.48;99617.06;6216472;23;20000;-79
2022/05/22 20:36:24;;;;;;;2.10;1.20;;;;;;;13.48;56.46;99605.25;6187968;23;20533;-78
2022/05/22 20:38:49;;;;;;;1.98;0.70;;;;;;;13.52;57.22;99622.75;6213490;23;20000;-78
2022/05/22 20:41:15;;;;;;;1.33;0.80;;;;;;;13.35;57.11;99607.72;6189034;23;20015;-76
2022/05/22 20:43:44;;;;;;;1.00;0.77;;;;;;;13.35;57.05;99618.69;6212231;23;20007;-77
2022/05/22 20:46:39;;;;;;;1.10;0.68;;;;;;;13.27;56.87;99613.88;6247062;22;20068;-76
2022/05/22 20:49:04;;;;;;;1.33;0.70;;;;;;;13.19;57.51;99615.41;6242408;23;20019;-77
2022/05/22 20:51:30;;;;;;;1.83;0.82;;;;;;;13.13;57.75;99610.28;6187801;23;20016;-75
2022/05/22 20:53:57;;;;;;;2.28;1.10;;;;;;;13.16;58.60;99615.22;6211055;23;20043;-77
2022/05/22 20:56:48;;;;;;;2.67;1.13;;;;;;;13.15;59.61;99619.06;6188199;23;20012;-76
2022/05/22 20:59:34;;;;;;;5.72;1.33;;;;;;;13.04;60.06;99607.44;6239283;23;20004;-77
2022/05/22 21:02:03;;;;;;;4.35;1.60;;;;;;;13.04;61.04;99619.25;6238786;23;20067;-78
2022/05/22 21:04:32;;;;;;;2.28;1.33;;;;;;;12.99;60.62;99613.84;6240699;23;20138;-78
2022/05/22 21:07:11;;;;;;;3.45;1.50;;;;;;;12.84;61.09;99612.19;6241440;23;20076;-76
2022/05/22 21:09:37;;;;;;;4.05;1.17;;;;;;;12.73;61.03;99600.59;6235749;23;20000;-75
2022/05/22 21:12:04;;;;;;;2.38;1.30;;;;;;;12.68;60.70;99595.16;6237498;23;20453;-78
2022/05/22 21:14:30;;;;;;;3.35;1.05;;;;;;;12.74;60.58;99607.69;6236573;23;20018;-78
2022/05/22 21:16:56;;;;;;;1.73;0.80;;;;;;;12.66;61.42;99605.63;6261725;23;20000;-78
2022/05/22 21:19:23;;;;;;;1.08;0.68;;;;;;;12.62;61.24;99604.59;6262614;23;20304;-76
2022/05/22 21:21:48;;;;;;;2.17;0.70;;;;;;;12.57;61.06;99604.66;6262934;23;20004;-76
2022/05/22 21:29:55;;;;;;;0.55;0.52;;;;;;;12.53;61.53;99599.00;6262443;23;20067;-76
2022/05/22 21:32:22;;;;;;;1.75;0.85;;;;;;;12.51;61.87;99594.91;6235652;22;20008;-75
2022/05/22 21:34:48;;;;;;;1.83;0.68;;;;;;;12.46;61.83;99589.53;6184786;23;20078;-77
2022/05/22 21:37:13;;;;;;;1.42;0.75;;;;;;;12.39;62.20;99576.97;6234967;23;20067;-77
2022/05/22 21:39:39;;;;;;;1.58;1.00;;;;;;;12.34;62.21;99566.13;6236249;22;20032;-76
2022/05/22 21:42:06;;;;;;;8.40;2.17;;;;;;;12.38;62.41;99585.50;6237249;23;20004;-78
2022/05/22 21:44:34;;;;;;;3.17;1.48;;;;;;;12.45;62.19;99591.44;6238349;22;20085;-76
2022/05/22 21:47:01;;;;;;;4.53;2.40;;;;;;;12.47;62.44;99586.47;6241901;22;20035;-78
2022/05/22 21:49:27;;;;;;;6.20;2.22;;;;;;;12.46;63.07;99587.59;6241449;22;20055;-78
2022/05/22 21:51:53;;;;;;;4.22;1.80;;;;;;;12.44;63.12;99580.75;6240331;23;20546;-77
2022/05/22 21:54:18;;;;;;;5.75;2.50;;;;;;;12.48;63.36;99592.78;6191596;23;20004;-78
2022/05/22 21:56:51;;;;;;;5.70;2.78;;;;;;;12.44;63.19;99589.00;6191322;23;20063;-79
2022/05/22 21:59:21;;;;;;;6.03;2.30;;;;;;;12.41;63.24;99587.66;6235328;22;20004;-75
2022/05/22 22:01:48;;;;;;;16.48;4.43;;;;;;;12.48;63.86;99599.06;6233437;23;20008;-75
2022/05/22 22:04:13;;;;;;;10.57;3.90;;;;;;;12.44;63.54;99578.84;6206648;23;20012;-77
2022/05/22 22:06:39;;;;;;;10.18;3.60;;;;;;;12.56;63.23;99592.09;6211460;23;20019;-79